Flight Track Log - Related Links

Times and Time Zones

All times are in EDT time to prevent confusion due to time zone crossing. See the RPA3159 flight status page for this flight to view local times or setup timezone preferences in your user account.

Time Position Orientation Groundspeed Altitude Reporting Facility
EDT Latitude Longitude Course Direction KTS MPH feet Rate Location/Type
Fri 11:43:00 AM 44.2016 -73.2500 180° South  Level FlightAware Approximate
Fri 11:43:30 AM 44.4064 -73.2711 195° South 252 290 6,300  Level Boston Center
Fri 11:44:00 AM 44.1127 -73.2828 195° South  Level FlightAware Approximate
Fri 11:44:30 AM 44.3206 -73.2989 193° South 282 325 9,400  Level Boston Center
Fri 11:45:00 AM 44.0234 -73.3144 194° South  Level FlightAware Approximate
Fri 11:45:30 AM 44.2392 -73.3267 194° South 299 344 11,200  Level Boston Center
Fri 11:46:00 AM 43.9339 -73.3443 193° South  Level FlightAware Approximate
Fri 11:46:30 AM 44.1494 -73.3572 194° South 326 375 13,500  Level Boston Center
Fri 11:47:00 AM 43.8449 -73.3770 195° South  Level FlightAware Approximate
Fri 11:47:30 AM 44.0636 -73.4081 203° Southwest 342 394 15,600  Level Boston Center
Fri 11:48:00 AM 43.7560 -73.4104 195° South  Level FlightAware Approximate
Fri 11:48:30 AM 43.9817 -73.4786 212° Southwest 348 400 17,600  Level Boston Center
Fri 11:49:30 AM 43.8975 -73.5494 211° Southwest 354 407 19,300 1,700 Climbing Boston Center
Fri 11:50:30 AM 43.8136 -73.6197 211° Southwest 354 407 21,000 1,500 Climbing Boston Center
Fri 11:51:30 AM 43.7272 -73.6956 212° Southwest 368 423 22,300 1,250 Climbing Boston Center
Fri 11:52:30 AM 43.6389 -73.7656 210° Southwest 368 423 23,500 1,250 Climbing Boston Center
Fri 11:53:30 AM 43.5442 -73.8436 211° Southwest 382 440 24,800 1,250 Climbing Boston Center
Fri 11:54:30 AM 43.4536 -73.9217 212° Southwest 387 445 26,000 600 Climbing Boston Center
Fri 11:55:30 AM 43.3694 -73.9881 210° Southwest 387 445 26,000  Level Boston Center
Fri 11:56:30 AM 43.2725 -74.0711 212° Southwest 387 445 26,000  Level Boston Center
Fri 11:57:30 AM 43.1817 -74.1456 211° Southwest 387 445 26,000  Level Boston Center
Fri 11:58:30 AM 43.0908 -74.2228 212° Southwest 387 445 26,000  Level Boston Center
Fri 11:59:30 AM 42.9981 -74.2967 210° Southwest 392 451 26,000  Level Boston Center
Fri 12:00:42 PM 42.9092 -74.3706 211° Southwest 392 451 26,000 -136 Level Boston Center
Fri 12:01:42 PM 42.7992 -74.4606 211° Southwest 392 451 25,700 -800 Descending Boston Center
Fri 12:02:42 PM 42.7083 -74.5339 211° Southwest 392 451 24,400 -850 Descending Boston Center
Fri 12:03:42 PM 42.6153 -74.6097 211° Southwest 392 451 24,000 -200 Descending Boston Center
Fri 12:04:42 PM 42.5242 -74.6825 210° Southwest 392 451 24,000 -550 Level Boston Center
Fri 12:05:42 PM 42.4350 -74.7581 212° Southwest 392 451 22,900 -1,200 Descending Boston Center
Fri 12:06:42 PM 42.3419 -74.8306 210° Southwest 392 451 21,600 -974 Descending Boston Center
Fri 12:08:53 PM 42.1528 -74.9781 210° Southwest 368 423 19,800 -821 Descending New York Center
Fri 12:09:52 PM 42.0647 -75.0561 213° Southwest 368 423 19,000 -400 Descending New York Center
Fri 12:10:53 PM 41.9789 -75.1258 211° Southwest 373 429 19,000  Level New York Center
Fri 12:11:51 PM 41.9017 -75.1878 211° Southwest 373 429 19,000  Level New York Center
Fri 12:12:51 PM 41.8158 -75.2572 211° Southwest 373 429 19,000 -595 Level New York Center
Fri 12:13:52 PM 41.7211 -75.3342 211° Southwest 373 429 17,800 -1,426 Descending New York Center
Fri 12:14:53 PM 41.6375 -75.4006 211° Southwest 367 422 16,100 -1,736 Descending New York Center
Fri 12:15:53 PM 41.5536 -75.4669 211° Southwest 362 417 14,300 -1,983 Descending New York Center
Fri 12:16:51 PM 41.4803 -75.5281 212° Southwest 350 403 12,200 -1,169 Descending New York Center
Fri 12:17:51 PM 41.4008 -75.5889 210° Southwest 350 403 12,000 -98 Descending New York Center
Fri 12:18:53 PM 41.3147 -75.6572 211° Southwest 344 396 12,000  Level New York Center
Fri 12:19:51 PM 41.2369 -75.7206 211° Southwest 338 389 12,000  Level New York Center
Fri 12:20:51 PM 41.1594 -75.7839 212° Southwest 338 389 12,000  Level New York Center
Fri 12:21:51 PM 41.0817 -75.8469 211° Southwest 333 383 12,000  Level New York Center
Fri 12:22:52 PM 41.0106 -75.9022 210° Southwest 338 389 12,000  Level New York Center
Fri 12:23:52 PM 40.9158 -75.9253 190° South 316 364 12,000  Level New York Center
Fri 12:24:53 PM 40.8272 -75.9019 169° South 316 364 12,000  Level New York Center
Fri 12:25:53 PM 40.7467 -75.8850 171° South 321 369 12,000 -407 Level New York Center
Fri 12:26:51 PM 40.6519 -75.8617 169° South 321 369 11,200 -610 Descending New York Center
Fri 12:27:51 PM 40.5656 -75.8361 167° South 321 369 10,800 -595 Descending New York Center
Fri 12:28:52 PM 40.5036 -75.7686 140° Southeast 292 336 10,000 -393 Descending New York Center
Fri 12:29:53 PM 40.4908 -75.6750 100° East 269 310 10,000  Level New York Center
Fri 12:30:53 PM 40.4744 -75.5728 102° East 269 310 10,000  Level New York Center
Fri 12:31:51 PM 40.4539 -75.4622 104° East 286 329 10,000 -403 Level New York Center
Fri 12:32:52 PM 40.3939 -75.3983 141° Southeast 265 305 9,200 -1,388 Descending New York Center
Fri 12:33:52 PM 40.3325 -75.3642 157° South 265 305 7,200 -1,190 Descending New York Center
Fri 12:34:53 PM 40.2589 -75.3322 162° South 270 311 6,800 -605 Descending New York Center
Fri 12:35:51 PM 40.1825 -75.3678 200° South 277 319 6,000 -407 Descending New York Center
Fri 12:36:51 PM 40.1017 -75.4058 200° South 289 333 6,000  Level New York Center
Fri 12:37:52 PM 40.0347 -75.4122 184° South 278 320 6,000 49 Level New York Center
Fri 12:38:53 PM 39.9686 -75.3944 168° South 242 278 6,100  Climbing New York Center
Fri 12:39:51 PM 39.9275 -75.4322 215° Southwest 183 211 6,000 -555 Descending New York Center
Fri 12:40:52 PM 39.9103 -75.4989 251° West 175 201 5,000 -496 Descending New York Center
Fri 12:41:52 PM 39.8931 -75.5625 251° West 202 232 5,000 -496 Level New York Center
Fri 12:42:53 PM 39.8658 -75.6228 240° Southwest 202 232 4,000 -400 Descending New York Center
Fri 12:44:07 PM 39.8000 -75.6000 165° South 174 200 4,100  Climbing Philadelphia TRACON
Fri 12:45:08 PM 39.8000 -75.5500 90° East 160 184 4,000 -347 Descending Philadelphia TRACON
Fri 12:46:08 PM 39.8167 -75.4833 72° East 160 184 3,400 -750 Descending Philadelphia TRACON
Fri 12:47:08 PM 39.8333 -75.4333 67° East 161 185 2,500 -900 Descending Philadelphia TRACON
Fri 12:48:08 PM 39.8333 -75.3833 90° East 162 186 1,600 -900 Descending Philadelphia TRACON

Login

Don't have an account? Register now (free) for customized features, flight alerts, and more!